PWSweather.com
Personal Weather Stations
Station Observations
N3SME
Betz Creek, Wilmington Island, Savannah, GA 31410

Betz Creek, Wilmington IslandSavannah, GA 31410

Lat: 32.023021, Lon: -80.959452

Elevation: 15

Station Type: Ambient

Latest ConditionsUpdated 10:30:29 AM EDT Wednesday, Apr 23, 2014
Currently Today's Max Today's Min Today's Average
Temperature 71.5°F21.9°C 71.5°F21.9°C 62.1°F16.7°C 64.3°F17.9°C
Dew Point 62.6°F17.0°C 62.6°F17.0°C 60.1°F15.6°C 61.1°F16.2°C
Winds 3.6 mph WNW5.8 kmh WNW 8.7 mph WNW14.0 kmh WNW - 3.1 mph 5.0 kmh
Wind Gusts 24.6 mph39.6 kmh 24.6 mph39.6 kmh - -
Humidity 74% 94% 74% 90%
Pressure 29.83 in1010.2 mb 29.83 in1010.2 mb 29.74 in1007.1 mb -
Precipitation - 0.01 in0.3 mm - -
Hour Temp Dew Point Humidity Winds Wind Gusts Pressure Precip Precip Rate Daily Precip Total
10:30 AM 71.5°F21.9°C 62.6°F17.0°C 74% 3.6 mph WNW5.8 kmh WNW 24.6 mph39.6 kmh 29.83 in1010.2 mb 0.00 in0.0 mm 0.00 in/hr0.0 mm/hr 0.01 in0.3 mm
10:15 AM 70.6°F21.4°C 62.1°F16.7°C 75% 8.7 mph WNW14.0 kmh WNW 24.6 mph39.6 kmh 29.83 in1010.2 mb 0.00 in0.0 mm 0.00 in/hr0.0 mm/hr 0.01 in0.3 mm
10:00 AM 70.4°F21.3°C 62.3°F16.8°C 76% Calm Calm 21.0 mph33.8 kmh 29.83 in1010.2 mb 0.00 in0.0 mm 0.00 in/hr0.0 mm/hr 0.01 in0.3 mm
09:45 AM 69.5°F20.8°C 62.6°F17.0°C 79% 8.7 mph WNW14.0 kmh WNW 17.4 mph28.0 kmh 29.82 in1009.8 mb 0.00 in0.0 mm 0.00 in/hr0.0 mm/hr 0.01 in0.3 mm
09:30 AM 68.1°F20.1°C 61.9°F16.6°C 81% 3.6 mph NW5.8 kmh NW 21.0 mph33.8 kmh 29.82 in1009.8 mb 0.00 in0.0 mm 0.00 in/hr0.0 mm/hr 0.01 in0.3 mm
09:15 AM 67.2°F19.6°C 62.5°F16.9°C 85% 3.6 mph W5.8 kmh W 17.4 mph28.0 kmh 29.81 in1009.5 mb 0.00 in0.0 mm 0.00 in/hr0.0 mm/hr 0.01 in0.3 mm
09:00 AM 66.5°F19.2°C 62.1°F16.7°C 86% 6.9 mph NW11.1 kmh NW 17.4 mph28.0 kmh 29.81 in1009.5 mb 0.00 in0.0 mm 0.00 in/hr0.0 mm/hr 0.01 in0.3 mm
08:45 AM 65.7°F18.7°C 61.7°F16.5°C 87% 3.6 mph NW5.8 kmh NW 22.8 mph36.7 kmh 29.81 in1009.5 mb 0.00 in0.0 mm 0.00 in/hr0.0 mm/hr 0.01 in0.3 mm
08:30 AM 64.7°F18.2°C 61.3°F16.3°C 89% 5.1 mph WNW8.2 kmh WNW 17.4 mph28.0 kmh 29.81 in1009.5 mb 0.00 in0.0 mm 0.00 in/hr0.0 mm/hr 0.01 in0.3 mm
08:15 AM 63.9°F17.7°C 61.2°F16.2°C 91% 1.8 mph W2.9 kmh W 17.4 mph28.0 kmh 29.81 in1009.5 mb 0.00 in0.0 mm 0.00 in/hr0.0 mm/hr 0.01 in0.3 mm
08:00 AM 63.2°F17.3°C 60.8°F16.0°C 92% 6.9 mph W11.1 kmh W 19.2 mph30.9 kmh 29.81 in1009.5 mb 0.00 in0.0 mm 0.00 in/hr0.0 mm/hr 0.01 in0.3 mm
07:45 AM 62.7°F17.1°C 60.6°F15.9°C 93% 1.8 mph W2.9 kmh W 17.4 mph28.0 kmh 29.80 in1009.1 mb 0.00 in0.0 mm 0.00 in/hr0.0 mm/hr 0.01 in0.3 mm
07:30 AM 62.3°F16.8°C 60.3°F15.7°C 93% 3.6 mph W5.8 kmh W 21.0 mph33.8 kmh 29.79 in1008.8 mb 0.00 in0.0 mm 0.00 in/hr0.0 mm/hr 0.01 in0.3 mm
07:15 AM 62.1°F16.7°C 60.1°F15.6°C 93% 1.8 mph W2.9 kmh W 14.1 mph22.7 kmh 29.79 in1008.8 mb 0.00 in0.0 mm 0.00 in/hr0.0 mm/hr 0.01 in0.3 mm
07:00 AM 62.1°F16.7°C 60.1°F15.6°C 93% 5.1 mph W8.2 kmh W 15.7 mph25.3 kmh 29.78 in1008.5 mb 0.00 in0.0 mm 0.00 in/hr0.0 mm/hr 0.01 in0.3 mm
06:45 AM 62.1°F16.7°C 60.4°F15.8°C 94% 3.6 mph W5.8 kmh W 17.4 mph28.0 kmh 29.77 in1008.1 mb 0.00 in0.0 mm 0.00 in/hr0.0 mm/hr 0.01 in0.3 mm
06:30 AM 62.1°F16.7°C 60.1°F15.6°C 93% 3.6 mph WNW5.8 kmh WNW 19.2 mph30.9 kmh 29.77 in1008.1 mb 0.00 in0.0 mm 0.00 in/hr0.0 mm/hr 0.01 in0.3 mm
06:15 AM 62.3°F16.8°C 60.3°F15.7°C 93% 3.6 mph W5.8 kmh W 15.7 mph25.3 kmh 29.76 in1007.8 mb 0.00 in0.0 mm 0.00 in/hr0.0 mm/hr 0.01 in0.3 mm
06:00 AM 62.5°F16.9°C 60.4°F15.8°C 93% 3.6 mph W5.8 kmh W 14.1 mph22.7 kmh 29.75 in1007.5 mb 0.00 in0.0 mm 0.00 in/hr0.0 mm/hr 0.01 in0.3 mm
05:45 AM 62.7°F17.1°C 60.3°F15.7°C 92% 1.8 mph WNW2.9 kmh WNW 17.4 mph28.0 kmh 29.75 in1007.5 mb 0.00 in0.0 mm 0.00 in/hr0.0 mm/hr 0.01 in0.3 mm
05:30 AM 62.7°F17.1°C 60.3°F15.7°C 92% 3.6 mph W5.8 kmh W 15.7 mph25.3 kmh 29.75 in1007.5 mb 0.00 in0.0 mm 0.00 in/hr0.0 mm/hr 0.01 in0.3 mm
05:15 AM 62.9°F17.2°C 60.5°F15.8°C 92% 1.8 mph WSW2.9 kmh WSW 12.3 mph19.8 kmh 29.75 in1007.5 mb 0.00 in0.0 mm 0.00 in/hr0.0 mm/hr 0.01 in0.3 mm
05:00 AM 62.9°F17.2°C 60.5°F15.8°C 92% 5.1 mph WSW8.2 kmh WSW 24.6 mph39.6 kmh 29.75 in1007.5 mb 0.00 in0.0 mm 0.00 in/hr0.0 mm/hr 0.01 in0.3 mm
04:45 AM 62.9°F17.2°C 60.5°F15.8°C 92% 3.6 mph NW5.8 kmh NW 15.7 mph25.3 kmh 29.75 in1007.5 mb 0.00 in0.0 mm 0.00 in/hr0.0 mm/hr 0.01 in0.3 mm
04:30 AM 63.0°F17.2°C 60.7°F15.9°C 92% 3.6 mph W5.8 kmh W 14.1 mph22.7 kmh 29.75 in1007.5 mb 0.00 in0.0 mm 0.00 in/hr0.0 mm/hr 0.01 in0.3 mm
04:15 AM 63.2°F17.3°C 60.8°F16.0°C 92% 1.8 mph W2.9 kmh W 14.1 mph22.7 kmh 29.74 in1007.1 mb 0.00 in0.0 mm 0.00 in/hr0.0 mm/hr 0.01 in0.3 mm
04:00 AM 63.0°F17.2°C 60.4°F15.8°C 91% Calm Calm 17.4 mph28.0 kmh 29.74 in1007.1 mb 0.00 in0.0 mm 0.00 in/hr0.0 mm/hr 0.01 in0.3 mm
03:45 AM 63.4°F17.4°C 60.7°F15.9°C 91% 6.9 mph WSW11.1 kmh WSW 12.3 mph19.8 kmh 29.74 in1007.1 mb 0.00 in0.0 mm 0.00 in/hr0.0 mm/hr 0.01 in0.3 mm
03:30 AM 63.6°F17.6°C 61.2°F16.2°C 92% 5.1 mph W8.2 kmh W 15.7 mph25.3 kmh 29.75 in1007.5 mb 0.00 in0.0 mm 0.00 in/hr0.0 mm/hr 0.01 in0.3 mm
03:15 AM 63.6°F17.6°C 60.9°F16.1°C 91% 1.8 mph WSW2.9 kmh WSW 14.1 mph22.7 kmh 29.74 in1007.1 mb 0.00 in0.0 mm 0.00 in/hr0.0 mm/hr 0.01 in0.3 mm
03:00 AM 63.6°F17.6°C 61.2°F16.2°C 92% 3.6 mph W5.8 kmh W 15.7 mph25.3 kmh 29.74 in1007.1 mb 0.00 in0.0 mm 0.00 in/hr0.0 mm/hr 0.01 in0.3 mm
02:45 AM 63.8°F17.7°C 61.4°F16.3°C 92% Calm Calm 15.7 mph25.3 kmh 29.74 in1007.1 mb 0.00 in0.0 mm 0.00 in/hr0.0 mm/hr 0.01 in0.3 mm
02:30 AM 63.8°F17.7°C 61.4°F16.3°C 92% 3.6 mph WSW5.8 kmh WSW 10.5 mph16.9 kmh 29.74 in1007.1 mb 0.00 in0.0 mm 0.00 in/hr0.0 mm/hr 0.01 in0.3 mm
02:15 AM 63.8°F17.7°C 61.1°F16.2°C 91% 1.8 mph WSW2.9 kmh WSW 10.5 mph16.9 kmh 29.75 in1007.5 mb 0.00 in0.0 mm 0.00 in/hr0.0 mm/hr 0.01 in0.3 mm
02:00 AM 63.8°F17.7°C 61.1°F16.2°C 91% 3.6 mph W5.8 kmh W 14.1 mph22.7 kmh 29.75 in1007.5 mb 0.01 in0.3 mm 0.00 in/hr0.0 mm/hr 0.01 in0.3 mm
01:45 AM 63.8°F17.7°C 61.1°F16.2°C 91% 1.8 mph WSW2.9 kmh WSW 8.7 mph14.0 kmh 29.75 in1007.5 mb 0.01 in0.3 mm 0.00 in/hr0.0 mm/hr 0.01 in0.3 mm
01:30 AM 63.8°F17.7°C 61.1°F16.2°C 91% Calm Calm 12.3 mph19.8 kmh 29.76 in1007.8 mb 0.01 in0.3 mm 0.00 in/hr0.0 mm/hr 0.01 in0.3 mm
01:15 AM 63.8°F17.7°C 61.1°F16.2°C 91% Calm Calm 8.7 mph14.0 kmh 29.75 in1007.5 mb 0.01 in0.3 mm 0.04 in/hr1.0 mm/hr 0.01 in0.3 mm
01:00 AM 63.9°F17.7°C 61.2°F16.2°C 91% 1.8 mph WNW2.9 kmh WNW 6.9 mph11.1 kmh 29.76 in1007.8 mb 0.00 in0.0 mm 0.00 in/hr0.0 mm/hr 0.00 in0.0 mm
12:45 AM 64.1°F17.8°C 61.4°F16.3°C 91% 1.8 mph WNW2.9 kmh WNW 8.7 mph14.0 kmh 29.75 in1007.5 mb 0.00 in0.0 mm 0.00 in/hr0.0 mm/hr 0.00 in0.0 mm
12:30 AM 64.3°F17.9°C 61.6°F16.4°C 91% Calm Calm 3.6 mph5.8 kmh 29.76 in1007.8 mb 0.00 in0.0 mm 0.00 in/hr0.0 mm/hr 0.00 in0.0 mm
12:15 AM 64.5°F18.1°C 61.8°F16.6°C 91% Calm Calm 8.7 mph14.0 kmh 29.76 in1007.8 mb 0.00 in0.0 mm 0.00 in/hr0.0 mm/hr 0.00 in0.0 mm
12:00 AM 64.7°F18.2°C 62.0°F16.7°C 91% Calm Calm 8.7 mph14.0 kmh 29.76 in1007.8 mb 0.00 in0.0 mm 0.00 in/hr0.0 mm/hr 0.00 in0.0 mm